createdAt,value
2017-12-13T00:00:06.918Z,25.40
2017-12-13T00:01:06.952Z,22.80
2017-12-13T00:02:06.916Z,24.70
2017-12-13T00:03:07.003Z,24.40
2017-12-13T00:04:06.922Z,23.60
2017-12-13T00:05:06.926Z,25.00
2017-12-13T00:06:06.976Z,22.70
2017-12-13T00:07:06.935Z,22.80
2017-12-13T00:08:06.987Z,22.60
2017-12-13T00:09:06.989Z,24.10
2017-12-13T00:10:06.955Z,23.80
2017-12-13T00:11:06.954Z,23.90
2017-12-13T00:12:06.956Z,24.10
2017-12-13T00:13:06.961Z,23.70
2017-12-13T00:14:06.967Z,21.00
2017-12-13T00:15:07.005Z,22.10
2017-12-13T00:16:06.971Z,22.70
2017-12-13T00:17:06.993Z,21.40
2017-12-13T00:18:06.980Z,21.80
2017-12-13T00:19:06.983Z,23.20
2017-12-13T00:20:06.987Z,23.30
2017-12-13T00:21:06.995Z,22.20
2017-12-13T00:22:07.000Z,21.70
2017-12-13T00:23:07.003Z,22.50
2017-12-13T00:24:07.031Z,22.70
2017-12-13T00:25:07.014Z,21.40
2017-12-13T00:26:07.050Z,22.70
2017-12-13T00:27:07.019Z,22.50
2017-12-13T00:28:07.026Z,21.30
2017-12-13T00:29:07.022Z,22.70
2017-12-13T00:30:07.099Z,22.80
2017-12-13T00:31:07.045Z,21.40
2017-12-13T00:32:07.053Z,23.10
2017-12-13T00:33:07.051Z,22.00
2017-12-13T00:34:07.114Z,22.30
2017-12-13T00:35:07.063Z,21.70
2017-12-13T00:36:07.056Z,21.00
2017-12-13T00:37:07.052Z,22.90
2017-12-13T00:38:07.066Z,21.80
2017-12-13T00:39:07.067Z,21.80
2017-12-13T00:40:07.072Z,23.10
2017-12-13T00:41:07.083Z,22.10
2017-12-13T00:42:07.092Z,20.60
2017-12-13T00:43:07.089Z,23.00
2017-12-13T00:44:07.122Z,21.50
2017-12-13T00:45:07.095Z,23.20
2017-12-13T00:46:07.098Z,22.90
2017-12-13T00:47:07.125Z,22.40
2017-12-13T00:48:07.109Z,24.90
2017-12-13T00:49:07.120Z,23.60
2017-12-13T00:50:07.121Z,22.80
2017-12-13T00:51:07.113Z,21.70
2017-12-13T00:52:07.123Z,22.30
2017-12-13T00:53:07.128Z,22.10
2017-12-13T00:54:07.129Z,20.50
2017-12-13T00:55:07.134Z,22.30
2017-12-13T00:56:07.133Z,22.10
2017-12-13T00:57:07.242Z,21.20
2017-12-13T00:58:07.150Z,21.60
2017-12-13T00:59:07.145Z,19.80
2017-12-13T01:00:07.169Z,20.30
2017-12-13T01:01:07.160Z,21.90
2017-12-13T01:02:07.159Z,18.80
2017-12-13T01:03:07.165Z,16.50
2017-12-13T01:04:07.166Z,19.00
2017-12-13T01:05:07.178Z,19.40
2017-12-13T01:06:07.184Z,19.70
2017-12-13T01:07:07.169Z,19.10
2017-12-13T01:08:07.190Z,18.80
2017-12-13T01:09:07.190Z,19.30
2017-12-13T01:10:07.198Z,17.30
2017-12-13T01:11:07.194Z,19.90
2017-12-13T01:12:07.204Z,20.00
2017-12-13T01:13:07.207Z,17.20
2017-12-13T01:14:07.209Z,17.90
2017-12-13T01:15:07.215Z,18.80
2017-12-13T01:16:07.216Z,18.90
2017-12-13T01:17:07.217Z,18.90
2017-12-13T01:18:07.239Z,17.10
2017-12-13T01:19:07.232Z,15.20
2017-12-13T01:20:07.315Z,14.60
2017-12-13T01:21:07.237Z,15.00
2017-12-13T01:22:07.239Z,17.10
2017-12-13T01:23:07.242Z,15.70
2017-12-13T01:24:07.248Z,17.20
2017-12-13T01:25:07.252Z,14.50
2017-12-13T01:26:07.259Z,16.10
2017-12-13T01:27:07.263Z,15.80
2017-12-13T01:28:07.263Z,16.60
2017-12-13T01:29:07.267Z,15.80
2017-12-13T01:30:07.272Z,15.80
2017-12-13T01:31:07.276Z,15.90
2017-12-13T01:32:07.281Z,15.60
2017-12-13T01:33:07.281Z,14.80
2017-12-13T01:34:07.294Z,14.40
2017-12-13T01:35:07.290Z,14.40
2017-12-13T01:36:07.333Z,14.70
2017-12-13T01:37:07.301Z,16.00
2017-12-13T01:38:07.320Z,14.00
2017-12-13T01:39:07.302Z,14.70
2017-12-13T01:40:07.309Z,13.70
2017-12-13T01:41:07.312Z,12.70
2017-12-13T01:42:07.313Z,12.30
2017-12-13T01:43:07.325Z,13.30
2017-12-13T01:44:07.348Z,13.80
2017-12-13T01:45:07.327Z,13.10
2017-12-13T01:46:07.328Z,12.60
2017-12-13T01:47:07.341Z,9.40
2017-12-13T01:48:07.947Z,12.60
2017-12-13T01:49:07.348Z,10.90
2017-12-13T01:50:07.364Z,11.20
2017-12-13T01:51:07.350Z,10.90
2017-12-13T01:52:07.379Z,11.20
2017-12-13T01:53:07.354Z,11.00
2017-12-13T01:54:07.362Z,10.80
2017-12-13T01:55:07.361Z,12.00
2017-12-13T01:56:07.364Z,12.10
2017-12-13T01:57:07.369Z,11.50
2017-12-13T01:58:07.371Z,11.50
2017-12-13T01:59:07.372Z,10.20
2017-12-13T02:00:07.377Z,10.70
2017-12-13T02:01:07.503Z,10.20
2017-12-13T02:02:07.398Z,11.00
2017-12-13T02:03:07.395Z,10.90
2017-12-13T02:04:07.402Z,9.70
2017-12-13T02:05:07.402Z,10.30
2017-12-13T02:06:07.537Z,11.90
2017-12-13T02:07:07.412Z,10.00
2017-12-13T02:08:07.417Z,11.00
2017-12-13T02:09:07.416Z,10.70
2017-12-13T02:10:07.420Z,10.80
2017-12-13T02:11:07.426Z,11.40
2017-12-13T02:12:07.430Z,11.50
2017-12-13T02:13:07.431Z,10.00
2017-12-13T02:14:07.433Z,9.30
2017-12-13T02:15:07.435Z,10.00
2017-12-13T02:16:07.460Z,11.40
2017-12-13T02:17:07.449Z,11.50
2017-12-13T02:18:07.450Z,11.70
2017-12-13T02:19:07.487Z,12.20
2017-12-13T02:20:07.455Z,10.30
2017-12-13T02:21:07.468Z,11.60
2017-12-13T02:22:07.466Z,11.80
2017-12-13T02:23:07.471Z,10.30
2017-12-13T02:24:07.478Z,9.60
2017-12-13T02:25:07.474Z,10.90
2017-12-13T02:26:07.478Z,9.30
2017-12-13T02:27:07.482Z,9.20
2017-12-13T02:28:07.490Z,10.40
2017-12-13T02:29:07.492Z,10.00
2017-12-13T02:30:07.495Z,10.60
2017-12-13T02:31:07.498Z,11.90
2017-12-13T02:32:07.502Z,9.80
2017-12-13T02:33:07.508Z,10.90
2017-12-13T02:34:07.515Z,9.00
2017-12-13T02:35:07.514Z,9.60
2017-12-13T02:36:07.514Z,8.70
2017-12-13T02:37:07.519Z,10.10
2017-12-13T02:38:07.527Z,8.60
2017-12-13T02:39:07.527Z,9.90
2017-12-13T02:40:07.531Z,7.70
2017-12-13T02:41:07.537Z,8.70
2017-12-13T02:42:07.531Z,9.90
2017-12-13T02:43:07.543Z,9.80
2017-12-13T02:44:07.548Z,9.90
2017-12-13T02:45:07.554Z,9.70
2017-12-13T02:46:07.557Z,10.80
2017-12-13T02:47:07.563Z,10.00
2017-12-13T02:48:07.557Z,9.20
2017-12-13T02:49:07.568Z,9.70
2017-12-13T02:50:07.570Z,10.00
2017-12-13T02:51:07.570Z,9.80
2017-12-13T02:52:07.574Z,8.40
2017-12-13T02:53:07.590Z,10.10
2017-12-13T02:54:07.584Z,9.00
2017-12-13T02:55:07.588Z,9.80
2017-12-13T02:56:07.587Z,9.00
2017-12-13T02:57:07.584Z,9.10
2017-12-13T02:58:07.593Z,8.80
2017-12-13T02:59:07.598Z,9.40
2017-12-13T03:00:07.605Z,9.50
2017-12-13T03:01:07.605Z,9.30
2017-12-13T03:02:07.612Z,8.20
2017-12-13T03:03:07.616Z,8.90
2017-12-13T03:04:07.615Z,9.00
2017-12-13T03:05:07.674Z,8.50
2017-12-13T03:06:07.628Z,8.30
2017-12-13T03:07:07.630Z,8.40
2017-12-13T03:08:07.635Z,8.90
2017-12-13T03:09:07.640Z,9.50
2017-12-13T03:10:07.643Z,8.90
2017-12-13T03:11:07.643Z,7.30
2017-12-13T03:12:07.646Z,9.70
2017-12-13T03:13:07.686Z,8.40
2017-12-13T03:14:07.688Z,8.80
2017-12-13T03:15:07.666Z,8.70
2017-12-13T03:16:07.660Z,8.10
2017-12-13T03:17:07.759Z,8.20
2017-12-13T03:18:07.658Z,9.30
2017-12-13T03:19:07.689Z,8.00
2017-12-13T03:20:07.717Z,7.50
2017-12-13T03:21:07.678Z,6.50
2017-12-13T03:22:07.812Z,7.20
2017-12-13T03:23:07.690Z,8.60
2017-12-13T03:24:07.691Z,8.40
2017-12-13T03:25:07.693Z,7.00
2017-12-13T03:26:07.704Z,8.00
2017-12-13T03:27:07.699Z,7.60
2017-12-13T03:28:07.708Z,8.00
2017-12-13T03:29:07.699Z,7.30
2017-12-13T03:30:07.708Z,6.50
2017-12-13T03:31:07.715Z,7.90
2017-12-13T03:32:07.723Z,6.50
2017-12-13T03:33:07.727Z,6.50
2017-12-13T03:34:07.726Z,6.90
2017-12-13T03:35:07.731Z,6.00
2017-12-13T03:36:07.736Z,6.90
2017-12-13T03:37:07.738Z,7.50
2017-12-13T03:38:07.745Z,7.10
2017-12-13T03:39:07.745Z,6.90
2017-12-13T03:40:07.746Z,7.30
2017-12-13T03:41:07.755Z,7.50
2017-12-13T03:42:07.757Z,7.90
2017-12-13T03:43:07.760Z,7.20
2017-12-13T03:44:07.764Z,7.90
2017-12-13T03:45:07.762Z,8.80
2017-12-13T03:46:07.774Z,8.30
2017-12-13T03:47:07.783Z,7.40
2017-12-13T03:48:07.776Z,6.80
2017-12-13T03:49:07.786Z,5.60
2017-12-13T03:50:07.778Z,7.10
2017-12-13T03:51:07.786Z,8.10
2017-12-13T03:52:07.785Z,7.60
2017-12-13T03:53:07.793Z,8.10
2017-12-13T03:54:07.793Z,8.60
2017-12-13T03:55:07.804Z,6.90
2017-12-13T03:56:07.800Z,7.60
2017-12-13T03:57:07.807Z,7.80
2017-12-13T03:58:07.807Z,6.90
2017-12-13T03:59:07.818Z,6.30
2017-12-13T04:00:07.819Z,7.30
2017-12-13T04:01:07.824Z,6.40
2017-12-13T04:02:07.826Z,7.20
2017-12-13T04:03:07.830Z,7.20
2017-12-13T04:04:07.838Z,5.80
2017-12-13T04:05:07.848Z,6.70
2017-12-13T04:06:07.838Z,6.70
2017-12-13T04:07:07.851Z,7.10
2017-12-13T04:08:07.851Z,7.20
2017-12-13T04:09:07.854Z,7.80
2017-12-13T04:10:07.876Z,8.10
2017-12-13T04:11:07.858Z,8.00
2017-12-13T04:12:07.873Z,7.70
2017-12-13T04:13:07.865Z,6.90
2017-12-13T04:14:07.869Z,7.60
2017-12-13T04:15:07.873Z,6.00
2017-12-13T04:16:07.876Z,7.20
2017-12-13T04:17:07.881Z,5.40
2017-12-13T04:18:07.890Z,7.00
2017-12-13T04:19:07.884Z,7.30
2017-12-13T04:20:07.893Z,6.70
2017-12-13T04:21:07.890Z,7.40
2017-12-13T04:22:07.895Z,8.10
2017-12-13T04:23:07.895Z,6.10
2017-12-13T04:24:07.904Z,7.40
2017-12-13T04:25:07.907Z,6.70
2017-12-13T04:26:07.910Z,7.40
2017-12-13T04:27:07.913Z,8.00
2017-12-13T04:28:07.922Z,7.80
2017-12-13T04:29:07.937Z,7.20
2017-12-13T04:30:08.447Z,7.50
2017-12-13T04:31:07.934Z,6.20
2017-12-13T04:32:07.931Z,6.10
2017-12-13T04:33:07.945Z,6.70
2017-12-13T04:34:07.944Z,7.20
2017-12-13T04:35:07.952Z,7.00
2017-12-13T04:36:07.946Z,6.90
2017-12-13T04:37:07.947Z,7.90
2017-12-13T04:38:07.951Z,8.00
2017-12-13T04:39:07.959Z,6.60
2017-12-13T04:40:07.971Z,8.00
2017-12-13T04:41:07.977Z,8.00
2017-12-13T04:42:07.969Z,7.30
2017-12-13T04:43:07.976Z,7.30
2017-12-13T04:44:07.977Z,8.00
2017-12-13T04:45:07.978Z,7.00
2017-12-13T04:46:07.982Z,7.60
2017-12-13T04:47:07.986Z,6.40
2017-12-13T04:48:07.994Z,7.00
2017-12-13T04:49:07.997Z,7.50
2017-12-13T04:50:07.991Z,7.30
2017-12-13T04:51:08.018Z,7.70
2017-12-13T04:52:08.009Z,5.80
2017-12-13T04:53:08.014Z,7.40
2017-12-13T04:54:08.019Z,6.30
2017-12-13T04:55:08.034Z,7.70
2017-12-13T04:56:08.015Z,6.70
2017-12-13T04:57:08.026Z,6.10
2017-12-13T04:58:08.030Z,6.50
2017-12-13T04:59:08.042Z,6.80
2017-12-13T05:00:08.040Z,6.70
2017-12-13T05:01:08.045Z,6.80
2017-12-13T05:02:08.050Z,6.70
2017-12-13T05:03:08.053Z,6.30
2017-12-13T05:04:08.051Z,6.30
2017-12-13T05:05:08.060Z,5.20
2017-12-13T05:06:08.065Z,5.90
2017-12-13T05:07:08.075Z,6.50
2017-12-13T05:08:08.070Z,6.40
2017-12-13T05:09:08.078Z,5.80
2017-12-13T05:10:08.079Z,5.20
2017-12-13T05:11:08.138Z,5.60
2017-12-13T05:12:08.085Z,5.80
2017-12-13T05:13:08.088Z,5.80
2017-12-13T05:14:08.095Z,5.00
2017-12-13T05:15:08.094Z,5.70
2017-12-13T05:16:08.104Z,5.50
2017-12-13T05:17:08.107Z,5.50
2017-12-13T05:18:08.105Z,5.60
2017-12-13T05:19:08.110Z,6.40
2017-12-13T05:20:08.116Z,6.30
2017-12-13T05:21:08.115Z,6.30
2017-12-13T05:22:08.121Z,6.00
2017-12-13T05:23:08.129Z,5.50
2017-12-13T05:24:08.157Z,6.10
2017-12-13T05:25:08.133Z,5.00
2017-12-13T05:26:08.134Z,5.40
2017-12-13T05:27:08.145Z,6.50
2017-12-13T05:28:08.147Z,5.90
2017-12-13T05:29:08.149Z,6.70
2017-12-13T05:30:08.154Z,6.80
2017-12-13T05:31:08.151Z,6.60
2017-12-13T05:32:08.159Z,6.40
2017-12-13T05:33:08.160Z,6.00
2017-12-13T05:34:08.168Z,6.10
2017-12-13T05:35:08.169Z,6.20
2017-12-13T05:36:08.174Z,4.80
2017-12-13T05:37:08.178Z,5.90
2017-12-13T05:38:08.183Z,6.00
2017-12-13T05:39:08.185Z,5.80
2017-12-13T05:40:08.191Z,5.50
2017-12-13T05:41:08.192Z,5.30
2017-12-13T05:42:08.199Z,5.50
2017-12-13T05:43:08.201Z,5.00
2017-12-13T05:44:08.207Z,5.40
2017-12-13T05:45:08.213Z,6.70
2017-12-13T05:46:08.210Z,5.50
2017-12-13T05:47:08.218Z,5.70
2017-12-13T05:48:08.225Z,5.30
2017-12-13T05:49:08.214Z,5.10
2017-12-13T05:50:08.223Z,4.40
2017-12-13T05:51:08.226Z,4.70
2017-12-13T05:52:08.231Z,5.50
2017-12-13T05:53:08.239Z,4.80
2017-12-13T05:54:08.246Z,4.80
2017-12-13T05:55:08.263Z,5.00
2017-12-13T05:56:08.252Z,5.10
2017-12-13T05:57:08.248Z,4.80
2017-12-13T05:58:08.256Z,5.70
2017-12-13T05:59:08.262Z,5.60
2017-12-13T06:00:08.277Z,5.10
2017-12-13T06:01:08.270Z,4.80
2017-12-13T06:02:08.274Z,5.10
2017-12-13T06:03:08.281Z,5.00
2017-12-13T06:04:08.282Z,5.00
2017-12-13T06:05:08.301Z,4.80
2017-12-13T06:06:08.287Z,5.40
2017-12-13T06:07:08.286Z,5.00
2017-12-13T06:08:08.300Z,4.70
2017-12-13T06:09:08.303Z,4.50
2017-12-13T06:10:08.315Z,5.10
2017-12-13T06:11:08.297Z,5.00
2017-12-13T06:12:08.307Z,5.10
2017-12-13T06:13:08.314Z,4.50
2017-12-13T06:14:08.312Z,5.20
2017-12-13T06:15:08.317Z,5.00
2017-12-13T06:16:08.322Z,3.80
2017-12-13T06:17:08.325Z,3.70
2017-12-13T06:18:09.016Z,3.80
2017-12-13T06:19:08.335Z,3.90
2017-12-13T06:20:08.344Z,4.40
2017-12-13T06:21:08.347Z,3.40
2017-12-13T06:22:08.349Z,4.30
2017-12-13T06:23:08.353Z,4.50
2017-12-13T06:24:08.353Z,4.70
2017-12-13T06:25:08.363Z,4.30
2017-12-13T06:26:08.362Z,4.20
2017-12-13T06:27:08.380Z,3.60
2017-12-13T06:28:08.372Z,3.40
2017-12-13T06:29:08.373Z,3.70
2017-12-13T06:31:08.394Z,3.90
2017-12-13T06:32:08.385Z,4.30
2017-12-13T06:33:08.390Z,3.80
2017-12-13T06:34:08.399Z,3.90
2017-12-13T06:35:08.403Z,3.70
2017-12-13T06:36:08.415Z,5.40
2017-12-13T06:37:08.401Z,4.10
2017-12-13T06:38:08.409Z,3.40
2017-12-13T06:39:08.417Z,3.20
2017-12-13T06:40:08.419Z,4.40
2017-12-13T06:41:08.421Z,3.30
2017-12-13T06:42:08.425Z,3.50
2017-12-13T06:43:08.428Z,3.90
2017-12-13T06:44:08.430Z,3.10
2017-12-13T06:45:08.435Z,3.80
2017-12-13T06:46:08.441Z,3.90
2017-12-13T06:47:08.438Z,4.00
2017-12-13T06:48:08.449Z,3.70
2017-12-13T06:49:08.501Z,4.10
2017-12-13T06:50:08.450Z,3.10
2017-12-13T06:51:08.472Z,3.80
2017-12-13T06:52:08.459Z,3.30
2017-12-13T06:53:08.466Z,4.50
2017-12-13T06:54:08.476Z,3.70
2017-12-13T06:55:08.486Z,2.70
2017-12-13T06:56:08.480Z,3.20
2017-12-13T06:57:08.477Z,3.40
2017-12-13T06:58:08.486Z,3.90
2017-12-13T06:59:08.559Z,4.60
2017-12-13T07:00:08.495Z,3.30
2017-12-13T07:01:08.500Z,3.60
2017-12-13T07:02:08.508Z,3.00
2017-12-13T07:03:08.510Z,3.10
2017-12-13T07:04:08.508Z,3.40
2017-12-13T07:05:08.523Z,3.30
2017-12-13T07:06:08.520Z,3.60
2017-12-13T07:07:08.521Z,4.00
2017-12-13T07:08:08.529Z,3.80
2017-12-13T07:09:08.528Z,3.60
2017-12-13T07:10:08.535Z,4.00
2017-12-13T07:11:08.538Z,3.20
2017-12-13T07:12:08.558Z,3.90
2017-12-13T07:13:08.546Z,3.70
2017-12-13T07:14:08.548Z,3.50
2017-12-13T07:15:08.560Z,4.20
2017-12-13T07:16:08.556Z,3.80
2017-12-13T07:17:08.594Z,4.50
2017-12-13T07:18:08.562Z,4.80
2017-12-13T07:19:08.570Z,4.70
2017-12-13T07:20:08.574Z,4.10
2017-12-13T07:21:08.591Z,4.10
2017-12-13T07:22:08.583Z,4.10
2017-12-13T07:23:08.586Z,4.50
2017-12-13T07:24:08.596Z,4.70
2017-12-13T07:25:08.597Z,3.70
2017-12-13T07:26:08.595Z,4.20
2017-12-13T07:27:08.692Z,3.80
2017-12-13T07:28:08.608Z,3.80
2017-12-13T07:29:08.622Z,4.50
2017-12-13T07:30:08.620Z,3.10
2017-12-13T07:31:08.620Z,4.00
2017-12-13T07:32:08.625Z,4.20
2017-12-13T07:33:08.631Z,3.80
2017-12-13T07:34:08.635Z,3.70
2017-12-13T07:35:08.637Z,2.90
2017-12-13T07:36:08.641Z,2.80
2017-12-13T07:37:08.648Z,4.10
2017-12-13T07:38:08.650Z,3.90
2017-12-13T07:39:08.651Z,3.70
2017-12-13T07:40:08.707Z,4.00
2017-12-13T07:41:08.674Z,3.60
2017-12-13T07:42:08.672Z,3.80
2017-12-13T07:43:08.668Z,3.50
2017-12-13T07:44:08.677Z,3.50
2017-12-13T07:45:08.722Z,3.50
2017-12-13T07:46:08.685Z,4.50
2017-12-13T07:47:08.692Z,3.90
2017-12-13T07:48:08.694Z,3.80
2017-12-13T07:49:08.697Z,3.80
2017-12-13T07:50:08.723Z,2.80
2017-12-13T07:51:08.703Z,3.70
2017-12-13T07:52:08.717Z,3.70
2017-12-13T07:53:08.729Z,3.90
2017-12-13T07:54:14.745Z,3.90
2017-12-13T07:55:08.725Z,4.00
2017-12-13T07:56:08.726Z,3.90
2017-12-13T07:57:08.731Z,4.40
2017-12-13T07:58:08.741Z,3.80
2017-12-13T07:59:08.745Z,3.50
2017-12-13T08:00:08.743Z,4.20
2017-12-13T08:01:08.750Z,4.40
2017-12-13T08:02:08.755Z,3.70
2017-12-13T08:03:08.827Z,3.70
2017-12-13T08:04:08.779Z,3.80
2017-12-13T08:05:08.778Z,3.30
2017-12-13T08:06:08.770Z,4.20
2017-12-13T08:07:08.777Z,3.90
2017-12-13T08:08:08.782Z,3.90
2017-12-13T08:09:08.799Z,4.00
2017-12-13T08:10:08.797Z,3.60
2017-12-13T08:11:08.799Z,3.80
2017-12-13T08:12:08.799Z,3.30
2017-12-13T08:13:08.809Z,3.70
2017-12-13T08:14:08.811Z,3.70
2017-12-13T08:15:08.819Z,4.50
2017-12-13T08:16:08.821Z,3.60
2017-12-13T08:17:08.821Z,4.10
2017-12-13T08:18:08.820Z,3.30
2017-12-13T08:19:08.836Z,2.50
2017-12-13T08:20:08.832Z,2.90
2017-12-13T08:21:08.850Z,2.90
2017-12-13T08:22:08.852Z,2.70
2017-12-13T08:23:08.857Z,4.00
2017-12-13T08:24:08.879Z,3.60
2017-12-13T08:25:08.865Z,3.10
2017-12-13T08:26:08.873Z,2.60
2017-12-13T08:27:08.875Z,2.20
2017-12-13T08:28:08.898Z,2.70
2017-12-13T08:29:08.900Z,2.30
2017-12-13T08:30:08.888Z,2.90
2017-12-13T08:31:08.942Z,2.60
2017-12-13T08:32:08.903Z,2.30
2017-12-13T08:33:08.904Z,2.60
2017-12-13T08:34:08.907Z,1.90
2017-12-13T08:35:08.916Z,2.50
2017-12-13T08:36:08.921Z,2.30
2017-12-13T08:37:08.924Z,2.60
2017-12-13T08:38:08.924Z,2.10
2017-12-13T08:39:08.932Z,2.60
2017-12-13T08:40:08.926Z,2.60
2017-12-13T08:41:08.938Z,2.30
2017-12-13T08:42:08.951Z,2.20
2017-12-13T08:43:08.953Z,2.30
2017-12-13T08:44:09.949Z,2.30
2017-12-13T08:45:08.955Z,2.80
2017-12-13T08:46:08.963Z,2.20
2017-12-13T08:47:13.993Z,2.70
2017-12-13T08:48:08.979Z,2.60
2017-12-13T08:49:09.037Z,2.70
2017-12-13T08:50:08.982Z,2.20
2017-12-13T08:51:08.995Z,2.40
2017-12-13T08:52:09.009Z,3.00
2017-12-13T08:53:09.004Z,2.70
2017-12-13T08:54:09.068Z,2.80
2017-12-13T08:55:09.013Z,2.90
2017-12-13T08:56:09.026Z,3.30
2017-12-13T08:57:09.011Z,3.40
2017-12-13T08:58:09.025Z,3.50
2017-12-13T08:59:09.027Z,3.80
2017-12-13T09:00:09.068Z,2.50
2017-12-13T09:01:09.039Z,3.20
2017-12-13T09:02:09.050Z,3.10
2017-12-13T09:03:09.057Z,2.80
2017-12-13T09:04:09.059Z,3.70
2017-12-13T09:05:09.063Z,2.20
2017-12-13T09:06:09.063Z,2.30
2017-12-13T09:07:09.069Z,2.30
2017-12-13T09:08:09.075Z,2.60
2017-12-13T09:09:09.085Z,2.50
2017-12-13T09:10:09.096Z,2.90
2017-12-13T09:11:09.089Z,2.70
2017-12-13T09:12:09.129Z,3.10
2017-12-13T09:13:09.101Z,3.20
2017-12-13T09:14:09.125Z,2.80
2017-12-13T09:15:09.108Z,2.10
2017-12-13T09:16:09.116Z,2.70
2017-12-13T09:17:09.123Z,2.40
2017-12-13T09:18:09.117Z,2.60
2017-12-13T09:19:09.124Z,2.80
2017-12-13T09:20:09.139Z,2.60
2017-12-13T09:21:09.150Z,2.10
2017-12-13T09:22:09.958Z,2.50
2017-12-13T09:23:09.150Z,2.80
2017-12-13T09:24:09.150Z,2.30
2017-12-13T09:25:09.207Z,2.30
2017-12-13T09:26:09.170Z,2.10
2017-12-13T09:27:09.179Z,2.60
2017-12-13T09:28:09.175Z,2.60
2017-12-13T09:29:09.186Z,2.40
2017-12-13T09:30:09.205Z,2.10
2017-12-13T09:31:09.197Z,2.30
2017-12-13T09:32:09.201Z,1.90
2017-12-13T09:33:09.215Z,2.20
2017-12-13T09:34:09.211Z,2.70
2017-12-13T09:35:09.225Z,2.00
2017-12-13T09:36:09.235Z,1.80
2017-12-13T09:37:09.222Z,2.00
2017-12-13T09:38:09.226Z,1.80
2017-12-13T09:39:09.225Z,1.80
2017-12-13T09:40:09.236Z,3.10
2017-12-13T09:41:09.242Z,2.00
2017-12-13T09:42:09.256Z,2.80
2017-12-13T09:43:09.250Z,3.10
2017-12-13T09:44:09.257Z,2.70
2017-12-13T09:45:09.283Z,2.20
2017-12-13T09:46:09.271Z,2.90
2017-12-13T09:47:09.274Z,2.90
2017-12-13T09:48:09.291Z,2.70
2017-12-13T09:49:09.286Z,2.50
2017-12-13T09:50:09.290Z,2.10
2017-12-13T09:51:09.294Z,2.20
2017-12-13T09:52:09.306Z,2.80
2017-12-13T09:53:09.309Z,2.30
2017-12-13T09:54:09.324Z,2.10
2017-12-13T09:55:09.323Z,2.50
2017-12-13T09:56:09.332Z,3.10
2017-12-13T09:57:09.352Z,2.30
2017-12-13T09:58:09.347Z,2.00
2017-12-13T09:59:09.334Z,2.40
2017-12-13T10:00:09.337Z,2.80
2017-12-13T10:01:09.347Z,2.60
2017-12-13T10:02:09.348Z,2.70
2017-12-13T10:03:09.346Z,2.40
2017-12-13T10:04:09.360Z,2.10
2017-12-13T10:05:09.369Z,2.10
2017-12-13T10:06:09.368Z,2.30
2017-12-13T10:07:09.370Z,2.40
2017-12-13T10:08:09.378Z,2.10
2017-12-13T10:09:09.390Z,1.80
2017-12-13T10:10:09.390Z,2.00
2017-12-13T10:11:09.398Z,1.70
2017-12-13T10:12:09.399Z,1.90
2017-12-13T10:13:09.413Z,1.80
2017-12-13T10:14:09.422Z,1.90
2017-12-13T10:15:09.410Z,1.90
2017-12-13T10:16:09.423Z,1.50
2017-12-13T10:17:09.423Z,1.70
2017-12-13T10:18:09.428Z,1.80
2017-12-13T10:19:09.438Z,1.80
2017-12-13T10:20:09.460Z,1.70
2017-12-13T10:21:09.444Z,1.40
2017-12-13T10:22:09.508Z,2.00
2017-12-13T10:23:09.457Z,1.70
2017-12-13T10:24:09.470Z,1.20
2017-12-13T10:25:09.463Z,1.70
2017-12-13T10:26:09.513Z,2.10
2017-12-13T10:27:09.468Z,2.00
2017-12-13T10:28:09.480Z,1.50
2017-12-13T10:29:09.486Z,1.50
2017-12-13T10:30:09.490Z,1.60
2017-12-13T10:31:09.509Z,1.20
2017-12-13T10:32:09.500Z,1.00
2017-12-13T10:33:09.503Z,1.60
2017-12-13T10:34:09.509Z,1.60
2017-12-13T10:35:09.519Z,1.40
2017-12-13T10:36:09.516Z,1.90
2017-12-13T10:37:09.524Z,1.80
2017-12-13T10:38:09.537Z,1.10
2017-12-13T10:39:09.536Z,1.40
2017-12-13T10:40:09.541Z,1.20
2017-12-13T10:41:09.546Z,1.30
2017-12-13T10:42:09.552Z,1.80
2017-12-13T10:43:09.559Z,1.60
2017-12-13T10:44:09.575Z,0.80
2017-12-13T10:45:09.553Z,0.90
2017-12-13T10:46:09.561Z,0.90
2017-12-13T10:47:09.573Z,1.50
2017-12-13T10:48:09.577Z,1.80
2017-12-13T10:49:09.586Z,1.40
2017-12-13T10:50:09.583Z,1.50
2017-12-13T10:51:09.596Z,1.50
2017-12-13T10:52:09.602Z,1.30
2017-12-13T10:53:09.605Z,1.30
2017-12-13T10:54:09.669Z,1.40
2017-12-13T10:55:09.614Z,1.00
2017-12-13T10:56:09.611Z,1.50
2017-12-13T10:57:09.621Z,1.30
2017-12-13T10:58:09.640Z,1.50
2017-12-13T10:59:09.627Z,1.70
2017-12-13T11:00:09.629Z,1.60
2017-12-13T11:01:09.647Z,1.70
2017-12-13T11:02:09.647Z,1.40
2017-12-13T11:03:09.655Z,1.10
2017-12-13T11:04:09.656Z,1.40
2017-12-13T11:05:09.671Z,2.00
2017-12-13T11:06:09.677Z,1.80
2017-12-13T11:07:09.669Z,2.00
2017-12-13T11:08:09.675Z,1.40
2017-12-13T11:09:09.678Z,1.50
2017-12-13T11:10:09.691Z,2.10
2017-12-13T11:11:09.687Z,1.50
2017-12-13T11:12:09.698Z,1.30
2017-12-13T11:13:09.700Z,1.20
2017-12-13T11:14:09.701Z,1.30
2017-12-13T11:15:09.706Z,1.50
2017-12-13T11:16:09.711Z,1.80
2017-12-13T11:17:09.799Z,1.80
2017-12-13T11:18:09.722Z,1.30
2017-12-13T11:19:09.728Z,1.50
2017-12-13T11:20:09.741Z,1.00
2017-12-13T11:21:09.741Z,1.50
2017-12-13T11:22:09.742Z,1.40
2017-12-13T11:23:09.741Z,0.90
2017-12-13T11:24:09.751Z,1.20
2017-12-13T11:25:09.761Z,1.00
2017-12-13T11:26:09.758Z,0.80
2017-12-13T11:27:09.764Z,0.90
2017-12-13T11:28:09.776Z,1.20
2017-12-13T11:29:09.762Z,1.20
2017-12-13T11:30:09.782Z,1.20
2017-12-13T11:31:09.782Z,1.20
2017-12-13T11:32:09.785Z,0.90
2017-12-13T11:33:09.798Z,1.10
2017-12-13T11:34:09.795Z,1.10
2017-12-13T11:35:09.793Z,1.00
2017-12-13T11:36:09.824Z,0.70
2017-12-13T11:37:09.804Z,0.90
2017-12-13T11:38:09.808Z,1.40
2017-12-13T11:39:09.812Z,0.90
2017-12-13T11:40:09.837Z,0.80
2017-12-13T11:41:09.822Z,1.30
2017-12-13T11:42:09.831Z,0.90
2017-12-13T11:43:09.838Z,1.40
2017-12-13T11:45:09.943Z,1.00
2017-12-13T11:46:09.849Z,1.30
2017-12-13T11:47:09.849Z,1.30
2017-12-13T11:48:09.855Z,1.50
2017-12-13T11:49:09.862Z,1.20
2017-12-13T11:50:09.872Z,1.10
2017-12-13T11:51:09.871Z,1.30
2017-12-13T11:52:09.879Z,1.20
2017-12-13T11:53:09.890Z,1.20
2017-12-13T11:54:09.907Z,1.40
2017-12-13T11:55:09.908Z,1.20
2017-12-13T11:56:09.905Z,1.20
2017-12-13T11:57:09.896Z,1.20
2017-12-13T11:58:09.976Z,0.90
2017-12-13T11:59:09.906Z,1.00
2017-12-13T12:00:09.947Z,1.30
2017-12-13T12:01:09.953Z,1.20
2017-12-13T12:02:09.934Z,1.10
2017-12-13T12:03:09.971Z,1.40
2017-12-13T12:04:09.946Z,1.40
2017-12-13T12:06:09.941Z,1.70
2017-12-13T12:07:09.941Z,1.30
2017-12-13T12:08:09.966Z,1.30
2017-12-13T12:09:09.956Z,0.80
2017-12-13T12:10:09.960Z,0.90
2017-12-13T12:11:09.978Z,1.00
2017-12-13T12:12:09.975Z,1.20
2017-12-13T12:13:10.038Z,1.00
2017-12-13T12:14:09.992Z,1.10
2017-12-13T12:15:10.285Z,1.00
2017-12-13T12:16:10.027Z,1.50
2017-12-13T12:17:09.996Z,1.20
2017-12-13T12:18:10.132Z,1.20
2017-12-13T12:19:10.050Z,1.40
2017-12-13T12:20:10.004Z,1.30
2017-12-13T12:21:10.165Z,0.90
2017-12-13T12:22:10.026Z,1.00
2017-12-13T12:23:10.019Z,1.40
2017-12-13T12:24:10.029Z,1.00
2017-12-13T12:25:10.026Z,1.20
2017-12-13T12:26:10.043Z,1.20
2017-12-13T12:27:10.046Z,1.00
2017-12-13T12:28:10.045Z,0.70
2017-12-13T12:29:10.054Z,1.00
2017-12-13T12:30:10.054Z,1.00
2017-12-13T12:31:10.053Z,0.60
2017-12-13T12:32:10.063Z,0.90
2017-12-13T12:33:10.069Z,1.00
2017-12-13T12:34:10.086Z,1.10
2017-12-13T12:35:10.068Z,1.00
2017-12-13T12:36:10.143Z,0.90
2017-12-13T12:37:10.081Z,1.30
2017-12-13T12:38:10.089Z,1.80
2017-12-13T12:39:10.094Z,1.10
2017-12-13T12:40:10.141Z,1.30
2017-12-13T12:41:10.113Z,0.90
2017-12-13T12:42:10.115Z,1.10
2017-12-13T12:43:10.137Z,1.10
2017-12-13T12:44:10.230Z,0.60
2017-12-13T12:45:10.143Z,0.80
2017-12-13T12:46:10.137Z,0.90
2017-12-13T12:47:10.171Z,0.70
2017-12-13T12:48:10.215Z,0.60
2017-12-13T12:49:10.161Z,0.60
2017-12-13T12:50:10.140Z,0.60
2017-12-13T12:51:10.147Z,0.60
2017-12-13T12:52:10.162Z,0.80
2017-12-13T12:53:10.161Z,0.50
2017-12-13T12:54:10.150Z,0.60
2017-12-13T12:55:10.157Z,0.60
2017-12-13T12:56:10.166Z,0.80
2017-12-13T12:57:10.182Z,0.80
2017-12-13T12:58:10.171Z,0.70
2017-12-13T12:59:10.180Z,0.70
2017-12-13T13:00:10.181Z,0.70
2017-12-13T13:01:10.194Z,0.60
2017-12-13T13:02:10.252Z,1.10
2017-12-13T13:03:10.203Z,1.00
2017-12-13T13:04:10.205Z,0.90
2017-12-13T13:05:10.203Z,0.90
2017-12-13T13:06:10.210Z,0.70
2017-12-13T13:07:10.214Z,0.70
2017-12-13T13:08:10.216Z,0.60
2017-12-13T13:09:10.223Z,0.90
2017-12-13T13:10:10.291Z,0.80
2017-12-13T13:11:10.255Z,0.60
2017-12-13T13:12:10.963Z,0.80
2017-12-13T13:13:10.249Z,0.60
2017-12-13T13:14:10.255Z,0.80
2017-12-13T13:15:10.260Z,0.70
2017-12-13T13:16:10.260Z,0.60